createdAt,value
2023-02-03T00:01:13.133Z,94.73
2023-02-03T00:03:16.565Z,95.09
2023-02-03T00:05:20.009Z,94.46
2023-02-03T00:07:23.404Z,95.11
2023-02-03T00:09:26.893Z,94.79
2023-02-03T00:11:33.268Z,94.92
2023-02-03T00:13:37.275Z,94.62
2023-02-03T00:15:42.047Z,93.90
2023-02-03T00:17:45.379Z,94.06
2023-02-03T00:19:50.093Z,93.53
2023-02-03T00:21:53.413Z,92.80
2023-02-03T00:23:56.703Z,93.33
2023-02-03T00:26:07.172Z,93.43
2023-02-03T00:28:10.623Z,93.45
2023-02-03T00:30:14.519Z,93.64
2023-02-03T00:32:20.071Z,93.64
2023-02-03T00:34:23.849Z,93.81
2023-02-03T00:36:27.292Z,93.52
2023-02-03T00:38:30.817Z,93.16
2023-02-03T00:40:34.267Z,92.63
2023-02-03T00:42:38.268Z,92.76
2023-02-03T00:44:41.616Z,92.64
2023-02-03T00:46:44.957Z,92.90
2023-02-03T00:48:49.848Z,92.72
2023-02-03T00:50:53.259Z,92.60
2023-02-03T00:52:56.593Z,93.15
2023-02-03T00:55:00.006Z,92.55
2023-02-03T00:57:03.297Z,92.33
2023-02-03T00:59:06.901Z,92.30
2023-02-03T01:01:10.992Z,93.15
2023-02-03T01:03:14.484Z,93.13
2023-02-03T01:05:19.309Z,93.09
2023-02-03T01:07:23.144Z,92.90
2023-02-03T01:09:27.256Z,92.89
2023-02-03T01:11:30.896Z,92.83
2023-02-03T01:13:34.307Z,93.02
2023-02-03T01:15:37.784Z,92.42
2023-02-03T01:17:41.277Z,92.70
2023-02-03T01:19:44.565Z,92.53
2023-02-03T01:21:49.309Z,92.31
2023-02-03T01:23:53.398Z,92.89
2023-02-03T01:25:56.757Z,91.94
2023-02-03T01:28:00.109Z,92.08
2023-02-03T01:30:03.491Z,92.40
2023-02-03T01:32:06.940Z,92.50
2023-02-03T01:34:14.327Z,92.04
2023-02-03T01:36:18.837Z,92.01
2023-02-03T01:38:23.534Z,91.57
2023-02-03T01:40:27.204Z,92.48
2023-02-03T01:42:34.514Z,92.65
2023-02-03T01:44:49.382Z,92.77
2023-02-03T01:46:53.537Z,92.81
2023-02-03T01:49:04.108Z,92.68
2023-02-03T01:51:08.200Z,92.66
2023-02-03T01:53:12.948Z,92.02
2023-02-03T01:55:20.750Z,92.48
2023-02-03T01:57:28.285Z,92.25
2023-02-03T01:59:34.391Z,92.11
2023-02-03T02:01:38.150Z,92.63
2023-02-03T02:03:47.480Z,92.77
2023-02-03T02:05:56.185Z,93.02
2023-02-03T02:08:01.102Z,93.03
2023-02-03T02:10:05.554Z,92.11
2023-02-03T02:12:11.762Z,92.50
2023-02-03T02:14:15.144Z,92.82
2023-02-03T02:16:25.559Z,93.07
2023-02-03T02:18:44.055Z,92.61
2023-02-03T02:21:12.674Z,92.54
2023-02-03T02:23:48.364Z,92.36
2023-02-03T02:26:26.775Z,92.24
2023-02-03T02:28:58.189Z,92.50
2023-02-03T02:31:37.305Z,92.08
2023-02-03T02:33:45.138Z,92.08
2023-02-03T02:35:59.199Z,92.52
2023-02-03T02:38:06.339Z,91.91
2023-02-03T02:40:21.444Z,92.10
2023-02-03T02:42:31.192Z,91.69
2023-02-03T02:44:40.424Z,92.45
2023-02-03T02:46:49.562Z,93.04
2023-02-03T02:49:00.662Z,92.21
2023-02-03T02:51:07.808Z,91.75
2023-02-03T02:53:14.268Z,92.44
2023-02-03T02:55:24.598Z,92.71
2023-02-03T02:57:32.373Z,92.84
2023-02-03T02:59:36.843Z,92.82
2023-02-03T03:01:41.237Z,92.81
2023-02-03T03:03:49.407Z,93.36
2023-02-03T03:05:56.523Z,93.12
2023-02-03T03:08:04.824Z,93.49
2023-02-03T03:10:14.685Z,93.40
2023-02-03T03:12:22.836Z,92.82
2023-02-03T03:14:31.461Z,92.71
2023-02-03T03:16:38.039Z,92.70
2023-02-03T03:18:45.344Z,92.37
2023-02-03T03:20:52.598Z,92.71
2023-02-03T03:23:00.481Z,92.41
2023-02-03T03:25:10.889Z,93.55
2023-02-03T03:27:19.464Z,93.41
2023-02-03T03:29:26.665Z,93.05
2023-02-03T03:31:30.163Z,93.14
2023-02-03T03:33:33.744Z,94.19
2023-02-03T03:35:43.625Z,93.83
2023-02-03T03:37:57.058Z,94.34
2023-02-03T03:40:03.452Z,93.92
2023-02-03T03:42:12.792Z,94.05
2023-02-03T03:44:20.235Z,93.75
2023-02-03T03:46:28.835Z,93.73
2023-02-03T03:48:37.845Z,93.65
2023-02-03T03:50:45.122Z,92.95
2023-02-03T03:52:51.835Z,93.18
2023-02-03T03:54:57.553Z,92.80
2023-02-03T03:57:06.355Z,92.51
2023-02-03T03:59:12.380Z,92.51
2023-02-03T04:01:17.455Z,91.92
2023-02-03T04:03:25.446Z,91.84
2023-02-03T04:05:29.958Z,92.01
2023-02-03T04:07:39.993Z,91.88
2023-02-03T04:09:44.709Z,92.06
2023-02-03T04:12:02.076Z,91.57
2023-02-03T04:14:05.445Z,91.85
2023-02-03T04:16:09.970Z,91.97
2023-02-03T04:18:14.826Z,92.21
2023-02-03T04:20:18.526Z,92.30
2023-02-03T04:22:23.100Z,92.06
2023-02-03T04:24:26.426Z,92.39
2023-02-03T04:26:31.111Z,92.10
2023-02-03T04:28:34.412Z,92.11
2023-02-03T04:30:37.752Z,92.48
2023-02-03T04:32:41.531Z,92.00
2023-02-03T04:34:44.844Z,91.52
2023-02-03T04:36:48.252Z,92.16
2023-02-03T04:38:51.904Z,91.51
2023-02-03T04:40:55.207Z,91.96
2023-02-03T04:42:59.924Z,91.96
2023-02-03T04:45:03.277Z,91.94
2023-02-03T04:47:06.670Z,91.32
2023-02-03T04:49:11.654Z,91.71
2023-02-03T04:51:15.026Z,92.09
2023-02-03T04:53:18.355Z,92.15
2023-02-03T04:55:21.657Z,92.23
2023-02-03T04:57:25.002Z,92.32
2023-02-03T04:59:29.834Z,92.32
2023-02-03T05:01:33.241Z,92.08
2023-02-03T05:03:36.728Z,91.38
2023-02-03T05:05:40.191Z,91.93
2023-02-03T05:07:43.588Z,91.02
2023-02-03T05:09:46.929Z,90.92
2023-02-03T05:11:50.304Z,90.98
2023-02-03T05:13:54.226Z,91.55
2023-02-03T05:15:58.906Z,91.03
2023-02-03T05:18:02.198Z,91.19
2023-02-03T05:20:06.504Z,91.55
2023-02-03T05:22:09.801Z,91.62
2023-02-03T05:24:13.245Z,91.48
2023-02-03T05:26:16.582Z,91.43
2023-02-03T05:28:20.835Z,91.59
2023-02-03T05:30:24.184Z,90.61
2023-02-03T05:32:28.909Z,91.40
2023-02-03T05:34:32.416Z,91.78
2023-02-03T05:36:35.814Z,92.04
2023-02-03T05:38:39.136Z,92.54
2023-02-03T05:40:59.950Z,91.98
2023-02-03T05:43:03.257Z,91.24
2023-02-03T05:45:07.406Z,92.17
2023-02-03T05:47:10.943Z,92.09
2023-02-03T05:49:16.231Z,91.84
2023-02-03T05:51:19.564Z,91.72
2023-02-03T05:53:23.066Z,91.30
2023-02-03T05:55:26.455Z,92.30
2023-02-03T05:57:32.133Z,91.62
2023-02-03T05:59:35.601Z,91.11
2023-02-03T06:01:39.205Z,91.33
2023-02-03T06:03:46.039Z,91.66
2023-02-03T06:05:53.832Z,91.42
2023-02-03T06:07:57.238Z,91.03
2023-02-03T06:10:00.564Z,91.13
2023-02-03T06:12:04.005Z,91.44
2023-02-03T06:14:07.398Z,91.83
2023-02-03T06:16:11.006Z,91.35
2023-02-03T06:18:14.414Z,90.84
2023-02-03T06:20:21.047Z,91.49
2023-02-03T06:22:25.777Z,91.02
2023-02-03T06:24:29.882Z,90.44
2023-02-03T06:26:33.224Z,91.07
2023-02-03T06:28:38.143Z,91.54
2023-02-03T06:30:41.566Z,91.66
2023-02-03T06:32:45.249Z,91.02
2023-02-03T06:34:48.678Z,91.27
2023-02-03T06:36:51.940Z,90.46
2023-02-03T06:38:56.717Z,90.46
2023-02-03T06:41:00.124Z,90.70
2023-02-03T06:43:03.486Z,89.95
2023-02-03T06:45:08.274Z,90.16
2023-02-03T06:47:11.574Z,90.23
2023-02-03T06:49:14.999Z,89.79
2023-02-03T06:51:18.429Z,89.43
2023-02-03T06:53:21.746Z,89.67
2023-02-03T06:55:26.481Z,89.66
2023-02-03T06:57:29.863Z,90.38
2023-02-03T06:59:33.345Z,90.32
2023-02-03T07:01:36.896Z,89.48
2023-02-03T07:03:40.489Z,89.70
2023-02-03T07:05:43.848Z,90.04
2023-02-03T07:07:47.184Z,89.96
2023-02-03T07:09:50.589Z,90.26
2023-02-03T07:11:55.275Z,90.42
2023-02-03T07:13:58.723Z,90.33
2023-02-03T07:16:02.113Z,90.32
2023-02-03T07:18:05.737Z,91.10
2023-02-03T07:20:09.896Z,90.47
2023-02-03T07:22:13.260Z,90.06
2023-02-03T07:24:16.780Z,90.42
2023-02-03T07:26:22.902Z,89.99
2023-02-03T07:28:27.841Z,90.70
2023-02-03T07:30:31.441Z,90.27
2023-02-03T07:32:34.885Z,89.86
2023-02-03T07:34:38.160Z,89.79
2023-02-03T07:36:41.622Z,90.08
2023-02-03T07:38:44.960Z,89.94
2023-02-03T07:40:48.363Z,89.85
2023-02-03T07:42:51.681Z,89.94
2023-02-03T07:44:56.360Z,90.44
2023-02-03T07:46:59.886Z,90.68
2023-02-03T07:49:05.716Z,89.64
2023-02-03T07:51:09.151Z,89.40
2023-02-03T07:53:12.619Z,89.47
2023-02-03T07:55:16.065Z,89.18
2023-02-03T07:57:19.485Z,89.28
2023-02-03T07:59:22.854Z,89.67
2023-02-03T08:01:28.738Z,89.16
2023-02-03T08:03:32.061Z,89.77
2023-02-03T08:05:35.616Z,89.65
2023-02-03T08:07:39.209Z,89.67
2023-02-03T08:09:42.581Z,89.24
2023-02-03T08:11:45.950Z,88.80
2023-02-03T08:13:50.245Z,88.67
2023-02-03T08:15:53.806Z,88.70
2023-02-03T08:17:58.567Z,88.81
2023-02-03T08:20:02.041Z,89.00
2023-02-03T08:22:05.446Z,89.39
2023-02-03T08:24:09.075Z,89.14
2023-02-03T08:26:12.569Z,88.86
2023-02-03T08:28:15.964Z,89.24
2023-02-03T08:30:19.592Z,89.66
2023-02-03T08:32:24.951Z,89.43
2023-02-03T08:34:30.029Z,90.22
2023-02-03T08:36:33.361Z,89.92
2023-02-03T08:38:36.745Z,89.93
2023-02-03T08:40:40.122Z,89.84
2023-02-03T08:42:44.822Z,90.34
2023-02-03T08:44:49.230Z,90.29
2023-02-03T08:46:53.390Z,89.80
2023-02-03T08:48:57.564Z,89.24
2023-02-03T08:51:02.359Z,89.34
2023-02-03T08:53:06.098Z,88.90
2023-02-03T08:55:09.776Z,89.17
2023-02-03T08:57:13.091Z,89.44
2023-02-03T08:59:16.485Z,89.70
2023-02-03T09:01:20.010Z,90.47
2023-02-03T09:03:23.467Z,90.49
2023-02-03T09:05:26.850Z,90.29
2023-02-03T09:07:31.621Z,90.28
2023-02-03T09:09:34.947Z,90.26
2023-02-03T09:11:38.602Z,89.53
2023-02-03T09:13:45.776Z,90.42
2023-02-03T09:15:49.127Z,90.13
2023-02-03T09:17:53.660Z,90.45
2023-02-03T09:19:57.063Z,90.80
2023-02-03T09:22:00.612Z,90.21
2023-02-03T09:24:06.039Z,89.94
2023-02-03T09:26:11.552Z,90.78
2023-02-03T09:28:14.927Z,90.66
2023-02-03T09:30:18.955Z,90.54
2023-02-03T09:32:22.312Z,90.57
2023-02-03T09:34:25.660Z,90.72
2023-02-03T09:36:29.156Z,91.29
2023-02-03T09:38:33.959Z,91.00
2023-02-03T09:40:40.629Z,91.49
2023-02-03T09:42:59.796Z,91.67
2023-02-03T09:45:15.767Z,92.83
2023-02-03T09:47:26.159Z,92.64
2023-02-03T09:49:38.624Z,93.16
2023-02-03T09:51:46.653Z,93.56
2023-02-03T09:53:55.319Z,93.11
2023-02-03T09:56:00.900Z,93.62
2023-02-03T09:58:07.403Z,94.21
2023-02-03T10:00:20.667Z,95.18
2023-02-03T10:02:36.967Z,95.05
2023-02-03T10:04:45.575Z,94.71
2023-02-03T10:06:49.172Z,95.29
2023-02-03T10:09:20.635Z,95.35
2023-02-03T10:11:36.966Z,95.80
2023-02-03T10:13:57.948Z,95.87
2023-02-03T10:16:16.958Z,96.24
2023-02-03T10:18:25.150Z,96.78
2023-02-03T10:20:36.809Z,97.15
2023-02-03T10:22:44.174Z,97.42
2023-02-03T10:24:53.802Z,97.73
2023-02-03T10:26:59.092Z,97.82
2023-02-03T10:29:08.974Z,97.95
2023-02-03T10:31:18.096Z,98.57
2023-02-03T10:33:22.130Z,98.12
2023-02-03T10:35:36.605Z,98.58
2023-02-03T10:37:44.829Z,98.57
2023-02-03T10:39:50.393Z,98.88
2023-02-03T10:41:54.841Z,98.98
2023-02-03T10:44:03.117Z,99.12
2023-02-03T10:46:06.482Z,100.00
2023-02-03T10:48:16.913Z,100.00
2023-02-03T10:50:22.918Z,100.00
2023-02-03T10:52:32.238Z,100.00
2023-02-03T10:54:38.237Z,100.00
2023-02-03T10:56:42.074Z,100.00
2023-02-03T10:58:50.574Z,99.89
2023-02-03T11:00:59.982Z,100.00
2023-02-03T11:03:08.001Z,100.00
2023-02-03T11:05:20.845Z,100.00
2023-02-03T11:07:27.066Z,98.90
2023-02-03T11:09:34.664Z,99.51
2023-02-03T11:11:41.648Z,99.76
2023-02-03T11:13:44.996Z,99.72
2023-02-03T11:15:58.757Z,99.36
2023-02-03T11:18:02.140Z,99.60
2023-02-03T11:20:15.314Z,99.51
2023-02-03T11:22:29.788Z,99.49
2023-02-03T11:24:35.011Z,99.77
2023-02-03T11:26:43.642Z,99.72
2023-02-03T11:28:49.600Z,99.03
2023-02-03T11:30:57.390Z,99.09
2023-02-03T11:33:03.751Z,98.42
2023-02-03T11:35:18.594Z,97.91
2023-02-03T11:37:32.238Z,98.00
2023-02-03T11:39:35.827Z,97.42
2023-02-03T11:41:40.616Z,97.68
2023-02-03T11:43:43.991Z,97.86
2023-02-03T11:45:51.213Z,98.72
2023-02-03T11:47:57.694Z,98.16
2023-02-03T11:50:31.107Z,98.41
2023-02-03T11:52:56.123Z,98.66
2023-02-03T11:55:09.060Z,97.93
2023-02-03T11:57:26.944Z,98.16
2023-02-03T11:59:45.465Z,98.31
2023-02-03T12:02:25.507Z,97.96
2023-02-03T12:05:01.040Z,97.39
2023-02-03T12:07:31.419Z,96.95
2023-02-03T12:09:47.708Z,97.68
2023-02-03T12:12:22.128Z,97.82
2023-02-03T12:14:40.020Z,96.82
2023-02-03T12:17:05.531Z,97.64
2023-02-03T12:19:19.883Z,96.92
2023-02-03T12:21:43.749Z,96.13
2023-02-03T12:23:54.633Z,96.66
2023-02-03T12:26:13.813Z,97.21
2023-02-03T12:28:33.590Z,97.11
2023-02-03T12:30:42.461Z,96.65
2023-02-03T12:32:52.563Z,96.28
2023-02-03T12:35:00.958Z,96.26
2023-02-03T12:37:09.475Z,96.55
2023-02-03T12:39:20.514Z,96.48
2023-02-03T12:41:27.988Z,95.97
2023-02-03T12:43:37.937Z,95.76
2023-02-03T12:45:41.869Z,95.99
2023-02-03T12:47:50.967Z,95.70
2023-02-03T12:49:57.669Z,95.37
2023-02-03T12:52:06.236Z,95.26
2023-02-03T12:54:20.367Z,96.05
2023-02-03T12:56:28.764Z,95.87
2023-02-03T12:58:38.071Z,95.12
2023-02-03T13:00:46.937Z,95.15
2023-02-03T13:03:03.323Z,95.29
2023-02-03T13:05:18.437Z,95.36
2023-02-03T13:07:28.568Z,95.09
2023-02-03T13:09:40.639Z,94.73
2023-02-03T13:11:49.744Z,95.03
2023-02-03T13:13:56.830Z,95.03
2023-02-03T13:16:03.241Z,95.65
2023-02-03T13:18:15.707Z,95.72
2023-02-03T13:20:21.971Z,95.61
2023-02-03T13:22:26.618Z,95.52
2023-02-03T13:24:31.451Z,95.19
2023-02-03T13:26:56.277Z,95.77
2023-02-03T13:29:21.589Z,95.89
2023-02-03T13:31:38.642Z,95.85
2023-02-03T13:34:12.319Z,95.04
2023-02-03T13:36:41.697Z,95.19
2023-02-03T13:39:21.538Z,94.30
2023-02-03T13:41:36.338Z,94.24
2023-02-03T13:43:46.567Z,93.73
2023-02-03T13:45:53.010Z,94.55
2023-02-03T13:47:59.092Z,94.35
2023-02-03T13:50:06.056Z,94.08
2023-02-03T13:52:25.255Z,93.73
2023-02-03T13:54:39.531Z,94.45
2023-02-03T13:56:45.096Z,93.21
2023-02-03T13:59:03.130Z,93.31
2023-02-03T14:01:29.581Z,93.01
2023-02-03T14:03:44.904Z,92.55
2023-02-03T14:05:50.868Z,92.32
2023-02-03T14:07:54.159Z,92.08
2023-02-03T14:10:15.914Z,92.34
2023-02-03T14:12:59.753Z,92.31
2023-02-03T14:15:23.434Z,91.80
2023-02-03T14:18:05.933Z,92.05
2023-02-03T14:20:54.165Z,91.75
2023-02-03T14:23:02.116Z,91.84
2023-02-03T14:25:07.971Z,91.43
2023-02-03T14:27:19.816Z,92.13
2023-02-03T14:29:29.367Z,92.00
2023-02-03T14:31:54.534Z,91.84
2023-02-03T14:34:15.081Z,91.50
2023-02-03T14:36:35.101Z,90.95
2023-02-03T14:38:38.586Z,91.07
2023-02-03T14:40:49.346Z,91.17
2023-02-03T14:43:21.921Z,91.51
2023-02-03T14:45:44.629Z,91.01
2023-02-03T14:48:02.468Z,90.51
2023-02-03T14:50:18.379Z,90.70
2023-02-03T14:52:39.944Z,91.08
2023-02-03T14:54:59.057Z,90.94
2023-02-03T14:57:19.446Z,90.47
2023-02-03T14:59:27.072Z,90.31
2023-02-03T15:02:12.508Z,89.79
2023-02-03T15:04:25.096Z,89.68
2023-02-03T15:06:40.913Z,89.49
2023-02-03T15:08:46.680Z,89.85
2023-02-03T15:10:50.016Z,90.46
2023-02-03T15:12:54.912Z,89.68
2023-02-03T15:15:19.975Z,90.46
2023-02-03T15:17:25.827Z,91.06
2023-02-03T15:19:35.679Z,90.42
2023-02-03T15:21:43.302Z,90.70
2023-02-03T15:23:49.354Z,90.49
2023-02-03T15:25:57.266Z,90.94
2023-02-03T15:28:12.864Z,91.26
2023-02-03T15:30:17.796Z,90.92
2023-02-03T15:32:29.005Z,91.34
2023-02-03T15:34:39.727Z,91.68
2023-02-03T15:36:48.319Z,92.00
2023-02-03T15:39:18.130Z,92.16
2023-02-03T15:41:24.415Z,92.84
2023-02-03T15:43:32.771Z,92.65
2023-02-03T15:45:42.778Z,92.84
2023-02-03T15:47:51.737Z,93.27
2023-02-03T15:50:06.152Z,93.52
2023-02-03T15:52:18.028Z,93.00
2023-02-03T15:54:30.163Z,93.78
2023-02-03T15:56:37.906Z,93.24
2023-02-03T15:58:47.126Z,93.62
2023-02-03T16:00:53.447Z,93.99
2023-02-03T16:02:59.704Z,94.45
2023-02-03T16:05:06.039Z,94.18
2023-02-03T16:07:19.248Z,93.90
2023-02-03T16:09:33.397Z,94.48
2023-02-03T16:11:39.298Z,94.16
2023-02-03T16:13:45.518Z,94.61
2023-02-03T16:16:05.758Z,94.98
2023-02-03T16:18:17.559Z,94.91
2023-02-03T16:20:29.259Z,94.42
2023-02-03T16:22:38.731Z,94.81
2023-02-03T16:24:45.816Z,94.07
2023-02-03T16:26:49.213Z,94.29
2023-02-03T16:29:30.465Z,93.92
2023-02-03T16:31:51.652Z,93.93
2023-02-03T16:34:12.688Z,93.83
2023-02-03T16:36:34.003Z,93.63
2023-02-03T16:38:55.043Z,92.86
2023-02-03T16:41:17.177Z,92.76
2023-02-03T16:43:38.101Z,92.64
2023-02-03T16:45:59.162Z,92.38
2023-02-03T16:48:21.621Z,93.04
2023-02-03T16:50:43.709Z,92.87
2023-02-03T16:52:47.072Z,92.84
2023-02-03T16:54:50.531Z,92.74
2023-02-03T16:56:58.440Z,92.88
2023-02-03T16:59:02.382Z,93.30
2023-02-03T17:01:07.599Z,92.81
2023-02-03T17:03:13.980Z,92.76
2023-02-03T17:05:18.361Z,92.38
2023-02-03T17:07:21.775Z,92.15
2023-02-03T17:09:25.161Z,92.25
2023-02-03T17:11:28.505Z,92.27
2023-02-03T17:13:33.725Z,92.25
2023-02-03T17:15:40.639Z,92.40
2023-02-03T17:17:44.034Z,92.84
2023-02-03T17:19:47.351Z,92.44
2023-02-03T17:21:51.482Z,92.45
2023-02-03T17:23:55.260Z,92.40
2023-02-03T17:25:58.610Z,92.09
2023-02-03T17:28:02.206Z,92.68
2023-02-03T17:30:07.937Z,92.40
2023-02-03T17:32:15.120Z,92.69
2023-02-03T17:34:18.857Z,92.90
2023-02-03T17:36:22.597Z,93.05
2023-02-03T17:38:25.974Z,92.92
2023-02-03T17:54:37.399Z,93.24
2023-02-03T17:56:40.842Z,93.25
2023-02-03T17:58:44.669Z,93.15
2023-02-03T18:00:49.679Z,93.11
2023-02-03T18:02:53.382Z,93.03
2023-02-03T18:04:56.703Z,92.72
2023-02-03T18:07:00.079Z,92.27
2023-02-03T18:09:04.827Z,91.70
2023-02-03T18:11:08.480Z,92.05
2023-02-03T18:13:11.958Z,92.02
2023-02-03T18:15:15.355Z,91.77
2023-02-03T18:17:20.125Z,91.08
2023-02-03T18:19:23.420Z,91.58
2023-02-03T18:21:27.668Z,90.77
2023-02-03T18:23:31.253Z,90.94
2023-02-03T18:25:36.134Z,91.07
2023-02-03T18:27:39.483Z,90.07
2023-02-03T18:29:44.726Z,90.18
2023-02-03T18:31:48.973Z,89.72
2023-02-03T18:33:54.410Z,89.30
2023-02-03T18:35:58.322Z,89.05
2023-02-03T18:38:01.806Z,88.62
2023-02-03T18:40:05.895Z,88.33
2023-02-03T18:42:09.230Z,87.99
2023-02-03T18:44:12.595Z,87.55
2023-02-03T18:46:19.881Z,87.29
2023-02-03T18:48:23.289Z,87.03
2023-02-03T18:50:28.690Z,87.16
2023-02-03T18:52:32.393Z,87.22
2023-02-03T18:54:36.262Z,86.54
2023-02-03T18:56:39.829Z,86.92
2023-02-03T18:58:46.593Z,86.55
2023-02-03T19:00:50.404Z,86.41
2023-02-03T19:02:54.185Z,85.88
2023-02-03T19:04:57.734Z,85.30
2023-02-03T19:07:02.497Z,85.27
2023-02-03T19:09:06.448Z,85.19
2023-02-03T19:11:09.834Z,84.96
2023-02-03T19:13:13.229Z,84.62
2023-02-03T19:15:16.636Z,85.12
2023-02-03T19:17:20.678Z,84.55
2023-02-03T19:19:24.164Z,84.85
2023-02-03T19:21:27.691Z,85.05
2023-02-03T19:23:32.514Z,84.46
2023-02-03T19:25:36.642Z,84.49
2023-02-03T19:27:40.025Z,84.36
2023-02-03T19:29:43.451Z,85.01
2023-02-03T19:31:46.978Z,85.08
2023-02-03T19:33:50.513Z,85.45
2023-02-03T19:35:53.840Z,85.25
2023-02-03T19:37:57.952Z,85.86
2023-02-03T19:40:02.682Z,86.66
2023-02-03T19:42:06.160Z,86.54
2023-02-03T19:44:09.518Z,87.08
2023-02-03T19:46:14.786Z,87.54
2023-02-03T19:48:21.241Z,88.10
2023-02-03T19:50:24.574Z,88.30
2023-02-03T19:52:27.938Z,89.00
2023-02-03T19:54:31.369Z,88.78
2023-02-03T19:56:36.084Z,88.51
2023-02-03T19:58:39.633Z,88.93
2023-02-03T20:00:43.128Z,89.22
2023-02-03T20:02:46.661Z,88.58
2023-02-03T20:04:50.370Z,88.55
2023-02-03T20:06:53.851Z,87.87
2023-02-03T20:08:57.226Z,87.91
2023-02-03T20:11:01.049Z,87.26
2023-02-03T20:13:05.943Z,87.18
2023-02-03T20:15:09.450Z,87.55
2023-02-03T20:17:12.930Z,87.24
2023-02-03T20:19:16.310Z,86.72
2023-02-03T20:21:19.803Z,87.00
2023-02-03T20:23:23.488Z,86.67
2023-02-03T20:25:27.120Z,86.87
2023-02-03T20:27:30.426Z,86.47
2023-02-03T20:29:35.131Z,86.44
2023-02-03T20:31:38.586Z,86.05
2023-02-03T20:33:42.120Z,85.77
2023-02-03T20:35:45.621Z,85.82
2023-02-03T20:37:49.161Z,85.89
2023-02-03T20:39:52.481Z,86.45
2023-02-03T20:41:56.061Z,86.74
2023-02-03T20:43:59.447Z,86.26
2023-02-03T20:46:06.635Z,86.54
2023-02-03T20:48:11.810Z,86.25
2023-02-03T20:50:18.207Z,86.03
2023-02-03T20:52:22.376Z,85.70
2023-02-03T20:54:25.857Z,85.91
2023-02-03T20:56:29.216Z,85.83
2023-02-03T20:58:37.107Z,85.99
2023-02-03T21:00:40.630Z,85.73
2023-02-03T21:03:04.289Z,86.15
2023-02-03T21:05:24.687Z,86.00
2023-02-03T21:07:30.763Z,85.72
2023-02-03T21:09:34.308Z,85.25
2023-02-03T21:11:37.633Z,85.74
2023-02-03T21:13:41.381Z,85.68
2023-02-03T21:15:44.830Z,84.67
2023-02-03T21:17:49.698Z,84.86
2023-02-03T21:19:54.782Z,84.54
2023-02-03T21:21:58.501Z,84.22
2023-02-03T21:24:02.934Z,84.35
2023-02-03T21:26:17.507Z,83.40
2023-02-03T21:28:26.263Z,83.88
2023-02-03T21:30:33.044Z,83.74
2023-02-03T21:32:39.289Z,83.65
2023-02-03T21:34:45.156Z,83.44
2023-02-03T21:36:48.660Z,83.22
2023-02-03T21:38:54.774Z,83.05
2023-02-03T21:40:58.919Z,83.01
2023-02-03T21:43:03.342Z,82.70
2023-02-03T21:45:25.289Z,82.44
2023-02-03T21:47:28.760Z,81.95
2023-02-03T21:49:34.512Z,81.98
2023-02-03T21:51:40.140Z,81.46
2023-02-03T21:53:48.732Z,81.58
2023-02-03T21:55:52.094Z,81.09
2023-02-03T21:57:55.666Z,81.21
2023-02-03T21:59:59.039Z,80.63
2023-02-03T22:02:03.449Z,80.80
2023-02-03T22:04:07.702Z,80.82
2023-02-03T22:06:19.826Z,79.92
2023-02-03T22:08:24.861Z,80.00
2023-02-03T22:10:28.673Z,79.50
2023-02-03T22:12:32.148Z,80.07
2023-02-03T22:14:35.519Z,79.72
2023-02-03T22:16:39.035Z,79.26
2023-02-03T22:18:42.547Z,78.83
2023-02-03T22:20:45.902Z,79.14
2023-02-03T22:22:49.457Z,79.02
2023-02-03T22:24:54.164Z,78.53
2023-02-03T22:27:00.216Z,78.34
2023-02-03T22:29:03.630Z,78.46
2023-02-03T22:31:07.659Z,78.67
2023-02-03T22:33:11.394Z,78.16
2023-02-03T22:35:14.726Z,77.88
2023-02-03T22:37:18.150Z,78.23
2023-02-03T22:39:21.597Z,77.92
2023-02-03T22:41:26.274Z,77.51
2023-02-03T22:43:31.244Z,78.22
2023-02-03T22:45:34.649Z,78.09
2023-02-03T22:47:38.153Z,78.20
2023-02-03T22:49:42.136Z,77.65
2023-02-03T22:51:45.716Z,78.11
2023-02-03T22:53:49.333Z,78.11
2023-02-03T22:55:52.722Z,78.03
2023-02-03T22:57:57.608Z,78.14
2023-02-03T23:00:00.984Z,78.04
2023-02-03T23:02:04.338Z,78.62
2023-02-03T23:04:07.673Z,78.67
2023-02-03T23:06:11.480Z,78.97
2023-02-03T23:08:14.857Z,78.72
2023-02-03T23:10:20.797Z,78.67
2023-02-03T23:12:24.114Z,78.87
2023-02-03T23:14:29.463Z,78.38
2023-02-03T23:16:32.786Z,79.50
2023-02-03T23:18:36.080Z,78.93
2023-02-03T23:20:39.499Z,79.47
2023-02-03T23:22:42.965Z,79.12
2023-02-03T23:24:46.395Z,79.81
2023-02-03T23:26:49.786Z,79.20
2023-02-03T23:28:53.200Z,79.95
2023-02-03T23:30:58.015Z,80.53
2023-02-03T23:33:01.412Z,79.77
2023-02-03T23:35:22.938Z,79.74
2023-02-03T23:37:26.530Z,79.36
2023-02-03T23:39:30.330Z,79.38
2023-02-03T23:41:33.686Z,79.43
2023-02-03T23:43:37.154Z,79.47
2023-02-03T23:45:40.868Z,79.29
2023-02-03T23:47:47.173Z,78.88
2023-02-03T23:49:50.626Z,79.46
2023-02-03T23:51:54.385Z,79.41
2023-02-03T23:53:57.637Z,79.00
2023-02-03T23:56:01.866Z,78.87
2023-02-03T23:58:05.953Z,79.21
